N2472P UT25-UT25
Flight info
| Callsign | N2472P |
|---|---|
| Flight time | 0h 10m |
| Altitude | 11000 |
| Route | K0V7 DCT JOXED DCT HUTGI DCT KD42Q DCT KD45Q |
| Aircraft | C170/L-SFG/C |
Departure
| Time | 2026-04-24 07:47 |
|---|---|
| Airport | Monument Valley Airport (UT25) |
Arrival
| Time | 2026-04-24 07:57 |
|---|---|
| Airport | Monument Valley Airport (UT25) |
| Time | Latitude | Longitude | Altitude | Speed | Heading |
|---|---|---|---|---|---|
| 2026-04-24 07:37 | 37.01127 | -110.20180 | 5233 ft | 0 kts | 83° |
| 2026-04-24 07:41 | 37.01107 | -110.20147 | 5238 ft | 10 kts | 165° |
| 2026-04-24 07:42 | 37.01067 | -110.20137 | 5240 ft | 6 kts | 50° |
| 2026-04-24 07:42 | 37.01090 | -110.20135 | 5238 ft | 18 kts | 352° |
| 2026-04-24 07:42 | 37.01413 | -110.20176 | 5211 ft | 70 kts | 354° |
| 2026-04-24 07:42 | 37.01964 | -110.20252 | 5264 ft | 83 kts | 351° |
| 2026-04-24 07:43 | 37.02500 | -110.20259 | 5442 ft | 76 kts | 14° |
| 2026-04-24 07:43 | 37.02575 | -110.20558 | 5219 ft | 68 kts | 173° |
| 2026-04-24 07:43 | 37.02202 | -110.20306 | 5138 ft | 55 kts | 160° |
| 2026-04-24 07:43 | 37.01871 | -110.20235 | 5175 ft | 46 kts | 171° |
| 2026-04-24 07:44 | 37.01648 | -110.20203 | 5194 ft | 31 kts | 174° |
| 2026-04-24 07:44 | 37.01325 | -110.20167 | 5234 ft | 56 kts | 173° |
| 2026-04-24 07:44 | 37.00916 | -110.20121 | 5357 ft | 56 kts | 177° |
| 2026-04-24 07:44 | 37.00630 | -110.20286 | 5421 ft | 66 kts | 282° |
| 2026-04-24 07:45 | 37.01028 | -110.20190 | 5320 ft | 72 kts | 47° |
| 2026-04-24 07:45 | 37.01446 | -110.20183 | 5211 ft | 48 kts | 351° |
| 2026-04-24 07:45 | 37.01793 | -110.20228 | 5181 ft | 65 kts | 352° |
| 2026-04-24 07:45 | 37.02325 | -110.20311 | 5182 ft | 81 kts | 349° |
| 2026-04-24 07:46 | 37.02892 | -110.20425 | 5303 ft | 83 kts | 351° |
| 2026-04-24 07:46 | 37.03474 | -110.20514 | 5441 ft | 84 kts | 353° |
| 2026-04-24 07:46 | 37.04049 | -110.20580 | 5575 ft | 84 kts | 354° |
| 2026-04-24 07:46 | 37.04633 | -110.20655 | 5682 ft | 86 kts | 352° |
| 2026-04-24 07:47 | 37.05226 | -110.20758 | 5793 ft | 85 kts | 350° |
| 2026-04-24 07:47 | 37.05799 | -110.20876 | 5904 ft | 85 kts | 349° |
| 2026-04-24 07:47 | 37.06350 | -110.20991 | 6000 ft | 85 kts | 349° |
| 2026-04-24 07:47 | 37.06940 | -110.21111 | 6114 ft | 86 kts | 349° |
| 2026-04-24 07:48 | 37.07273 | -110.21167 | 6201 ft | 82 kts | 352° |
| 2026-04-24 07:48 | 37.07870 | -110.21244 | 6241 ft | 90 kts | 353° |
| 2026-04-24 07:48 | 37.08481 | -110.21309 | 6348 ft | 87 kts | 354° |
| 2026-04-24 07:48 | 37.09099 | -110.21352 | 6428 ft | 90 kts | 355° |
| 2026-04-24 07:49 | 37.09711 | -110.21421 | 6517 ft | 89 kts | 349° |
| 2026-04-24 07:49 | 37.10327 | -110.21555 | 6621 ft | 89 kts | 346° |
| 2026-04-24 07:49 | 37.10919 | -110.21699 | 6725 ft | 89 kts | 347° |
| 2026-04-24 07:49 | 37.11537 | -110.21812 | 6824 ft | 89 kts | 352° |
| 2026-04-24 07:50 | 37.11922 | -110.21856 | 6889 ft | 88 kts | 347° |
| 2026-04-24 07:50 | 37.12523 | -110.22042 | 6940 ft | 90 kts | 341° |
| 2026-04-24 07:50 | 37.13099 | -110.22297 | 7025 ft | 88 kts | 334° |
| 2026-04-24 07:50 | 37.13652 | -110.22630 | 7085 ft | 88 kts | 338° |
| 2026-04-24 07:51 | 37.14275 | -110.22795 | 7128 ft | 90 kts | 346° |
| 2026-04-24 07:51 | 37.14886 | -110.22888 | 7212 ft | 83 kts | 15° |
| 2026-04-24 07:51 | 37.15208 | -110.22226 | 7082 ft | 98 kts | 37° |
| 2026-04-24 07:51 | 37.15516 | -110.22313 | 7043 ft | 83 kts | 185° |
| 2026-04-24 07:52 | 37.14934 | -110.22136 | 7026 ft | 88 kts | 174° |
| 2026-04-24 07:52 | 37.14327 | -110.22003 | 7153 ft | 89 kts | 178° |
| 2026-04-24 07:52 | 37.13708 | -110.21908 | 7231 ft | 90 kts | 178° |
| 2026-04-24 07:52 | 37.13075 | -110.21832 | 7323 ft | 94 kts | 183° |
| 2026-04-24 07:53 | 37.12420 | -110.21783 | 7408 ft | 94 kts | 185° |
| 2026-04-24 07:53 | 37.11765 | -110.21740 | 7475 ft | 94 kts | 178° |
| 2026-04-24 07:53 | 37.11135 | -110.21480 | 7537 ft | 98 kts | 165° |
| 2026-04-24 07:53 | 37.10504 | -110.21227 | 7515 ft | 96 kts | 177° |
| 2026-04-24 07:54 | 37.09887 | -110.21073 | 7547 ft | 91 kts | 175° |
| 2026-04-24 07:54 | 37.09198 | -110.20913 | 6786 ft | 121 kts | 180° |
| 2026-04-24 07:54 | 37.08390 | -110.20788 | 6602 ft | 113 kts | 168° |
| 2026-04-24 07:54 | 37.07758 | -110.20661 | 6627 ft | 89 kts | 188° |
| 2026-04-24 07:55 | 37.07115 | -110.20579 | 6636 ft | 95 kts | 178° |
| 2026-04-24 07:55 | 37.06463 | -110.20459 | 6706 ft | 96 kts | 180° |
| 2026-04-24 07:55 | 37.05775 | -110.20340 | 6686 ft | 103 kts | 178° |
| 2026-04-24 07:55 | 37.05024 | -110.20207 | 6539 ft | 115 kts | 179° |
| 2026-04-24 07:56 | 37.04194 | -110.20299 | 5934 ft | 132 kts | 199° |
| 2026-04-24 07:56 | 37.03341 | -110.20438 | 5464 ft | 113 kts | 191° |
| 2026-04-24 07:56 | 37.02632 | -110.20331 | 5229 ft | 96 kts | 174° |
| 2026-04-24 07:56 | 37.02065 | -110.20257 | 5175 ft | 68 kts | 173° |
| 2026-04-24 07:57 | 37.01717 | -110.20212 | 5187 ft | 33 kts | 173° |
| 2026-04-24 07:57 | 37.01611 | -110.20200 | 5197 ft | 25 kts | 155° |
| 2026-04-24 07:57 | 37.01361 | -110.20170 | 5216 ft | 49 kts | 171° |
| 2026-04-24 07:57 | 37.01107 | -110.20111 | 5238 ft | 11 kts | 180° |
| 2026-04-24 07:58 | 37.01092 | -110.20124 | 5238 ft | 17 kts | 226° |
| 2026-04-24 07:58 | 37.01065 | -110.20132 | 5240 ft | 12 kts | 13° |
| 2026-04-24 07:58 | 37.01072 | -110.20131 | 5239 ft | 0 kts | 354° |
| 2026-04-24 07:59 | 37.01233 | -110.20153 | 5229 ft | 53 kts | 355° |
| 2026-04-24 08:00 | 37.01715 | -110.20208 | 5256 ft | 77 kts | 353° |
| 2026-04-24 08:00 | 37.02222 | -110.20257 | 5373 ft | 0 kts | 15° |
| 2026-04-24 08:00 | 37.02032 | -110.20272 | 5193 ft | 84 kts | 170° |
| 2026-04-24 08:00 | 37.01582 | -110.20193 | 5203 ft | 57 kts | 175° |
| 2026-04-24 08:01 | 37.01271 | -110.20159 | 5225 ft | 25 kts | 170° |
| 2026-04-24 08:01 | 37.01253 | -110.20156 | 5227 ft | 1 kts | 174° |
| 2026-04-24 08:01 | 37.01094 | -110.20159 | 5237 ft | 40 kts | 201° |
| 2026-04-24 08:01 | 37.00842 | -110.20392 | 5270 ft | 51 kts | 263° |
| 2026-04-24 08:02 | 37.01145 | -110.20473 | 5293 ft | 66 kts | 42° |
| 2026-04-24 08:02 | 37.01103 | -110.19953 | 5359 ft | 69 kts | 152° |
| 2026-04-24 08:02 | 37.00868 | -110.20125 | 5324 ft | 67 kts | 327° |
| 2026-04-24 08:02 | 37.01324 | -110.20161 | 5225 ft | 55 kts | 350° |
| 2026-04-24 08:03 | 37.01546 | -110.20201 | 5201 ft | 0 kts | 269° |
| 2026-04-24 08:03 | 37.01526 | -110.20194 | 5203 ft | 19 kts | 163° |
| 2026-04-24 08:03 | 37.01231 | -110.20152 | 5229 ft | 62 kts | 174° |
| 2026-04-24 08:03 | 37.00825 | -110.19965 | 5358 ft | 67 kts | 110° |
| 2026-04-24 08:04 | 37.01113 | -110.19606 | 5402 ft | 81 kts | 333° |
| 2026-04-24 08:04 | 37.01624 | -110.19946 | 5370 ft | 93 kts | 4° |
| 2026-04-24 08:04 | 37.02200 | -110.19883 | 5504 ft | 69 kts | 323° |
| 2026-04-24 08:04 | 37.01997 | -110.20254 | 5186 ft | 76 kts | 170° |
| 2026-04-24 08:05 | 37.01596 | -110.20200 | 5198 ft | 39 kts | 172° |
| 2026-04-24 08:05 | 37.01483 | -110.20182 | 5205 ft | 0 kts | 170° |
| 2026-04-24 08:05 | 37.01479 | -110.20181 | 5206 ft | 10 kts | 174° |
| 2026-04-24 08:05 | 37.01208 | -110.20147 | 5231 ft | 61 kts | 173° |
| 2026-04-24 08:06 | 37.00790 | -110.20149 | 5444 ft | 56 kts | 201° |
| 2026-04-24 08:06 | 37.00486 | -110.20367 | 5639 ft | 38 kts | 217° |
| 2026-04-24 08:06 | 37.00363 | -110.20462 | 6250 ft | 82 kts | 222° |
| 2026-04-24 08:06 | 37.00688 | -110.20728 | 6251 ft | 80 kts | 341° |
| 2026-04-24 08:07 | 37.00888 | -110.21416 | 6106 ft | 105 kts | 251° |
| 2026-04-24 08:07 | 37.00556 | -110.22183 | 5829 ft | 104 kts | 219° |
| 2026-04-24 08:07 | 37.00075 | -110.22802 | 5445 ft | 93 kts | 210° |
| 2026-04-24 08:07 | 36.99700 | -110.23225 | 5313 ft | 51 kts | 225° |
| 2026-04-24 08:08 | 36.99654 | -110.23269 | 5308 ft | 0 kts | 274° |
| 2026-04-24 08:08 | 36.99541 | -110.23395 | 5322 ft | 51 kts | 211° |
| 2026-04-24 08:08 | 36.99099 | -110.23399 | 5453 ft | 37 kts | 172° |
| 2026-04-24 08:09 | 36.98920 | -110.22728 | 5351 ft | 66 kts | 114° |
| 2026-04-24 08:09 | 36.98876 | -110.22191 | 5352 ft | 73 kts | 92° |
| 2026-04-24 08:09 | 36.98578 | -110.19918 | 5702 ft | 72 kts | 2° |
| 2026-04-24 08:09 | 36.98851 | -110.19582 | 5494 ft | 62 kts | 73° |
| 2026-04-24 08:10 | 36.99069 | -110.19164 | 5339 ft | 53 kts | 68° |
| 2026-04-24 08:10 | 36.99146 | -110.18913 | 5319 ft | 5 kts | 95° |
| 2026-04-24 08:10 | 36.99147 | -110.18901 | 5319 ft | 0 kts | 327° |